Time;durP1;ratioP1;P1;durP2;ratioP2;P2;SDS_P1;SDS_P2;PMS_P1;PMS_P2;Temp;Humidity;BMP_temperature;BMP_pressure;BME280_temperature;BME280_humidity;BME280_pressure;Samples;Min_cycle;Max_cycle;Signal;HPM_P1;HPM_P2
2021/12/23 00:00:39;;;;;;;47.17;18.25;;;-4.50;99.90;;;;;;5043083;28;20045;-70
2021/12/23 00:03:05;;;;;;;46.08;18.83;;;-4.60;99.90;;;;;;5006188;28;20033;-70
2021/12/23 00:05:31;;;;;;;50.75;18.95;;;-4.50;99.90;;;;;;5010541;28;20580;-70
2021/12/23 00:07:56;;;;;;;47.08;18.55;;;-4.50;99.90;;;;;;5025329;28;20029;-70
2021/12/23 00:10:22;;;;;;;46.45;18.83;;;-4.50;99.90;;;;;;5006922;28;20025;-70
2021/12/23 00:12:48;;;;;;;54.55;20.98;;;-4.50;99.90;;;;;;5020265;28;20105;-70
2021/12/23 00:15:24;;;;;;;49.60;19.25;;;-4.40;99.90;;;;;;5025503;28;20060;-69
2021/12/23 00:25:37;;;;;;;41.65;17.90;;;-4.50;99.90;;;;;;5021437;28;20116;-69
2021/12/23 00:28:05;;;;;;;45.03;18.27;;;-4.50;99.90;;;;;;5011773;28;20507;-69
2021/12/23 00:30:34;;;;;;;49.03;20.60;;;-4.60;99.90;;;;;;5007990;28;20385;-69
2021/12/23 00:33:00;;;;;;;43.85;19.25;;;-4.60;99.90;;;;;;5009232;28;20029;-69
2021/12/23 00:35:28;;;;;;;46.15;19.48;;;-4.60;99.90;;;;;;5030853;28;20041;-69
2021/12/23 00:38:05;;;;;;;47.03;19.40;;;-4.70;99.90;;;;;;5025249;28;20033;-69
2021/12/23 00:40:31;;;;;;;46.08;19.35;;;-4.70;99.90;;;;;;5024895;28;20044;-69
2021/12/23 00:42:56;;;;;;;41.40;17.55;;;-4.80;99.90;;;;;;5023145;28;20101;-69
2021/12/23 00:45:22;;;;;;;42.65;17.33;;;-4.80;99.90;;;;;;5018978;28;20609;-69
2021/12/23 00:47:48;;;;;;;46.75;19.48;;;-4.70;99.90;;;;;;5011102;28;20036;-69
2021/12/23 00:50:14;;;;;;;46.05;18.40;;;-4.70;99.90;;;;;;5008271;28;20057;-69
2021/12/23 00:52:41;;;;;;;49.20;19.10;;;-4.70;99.90;;;;;;5001553;28;20034;-69
2021/12/23 00:55:10;;;;;;;51.80;21.17;;;-4.70;99.90;;;;;;5013913;28;20032;-69
2021/12/23 00:57:39;;;;;;;49.53;20.77;;;-4.70;99.90;;;;;;5022055;28;20105;-69
2021/12/23 01:00:15;;;;;;;49.58;18.90;;;-4.80;99.90;;;;;;5030470;28;20048;-69
2021/12/23 01:02:45;;;;;;;46.85;19.65;;;-4.80;99.90;;;;;;5032024;28;20083;-69
2021/12/23 01:05:14;;;;;;;42.90;18.67;;;-4.80;99.90;;;;;;5019922;28;20258;-69
2021/12/23 01:07:40;;;;;;;47.22;18.55;;;-4.90;99.90;;;;;;5026015;28;20033;-69
2021/12/23 01:10:09;;;;;;;44.00;17.95;;;-4.90;99.90;;;;;;5020085;28;20029;-69
2021/12/23 01:12:43;;;;;;;52.33;20.02;;;-4.90;99.90;;;;;;5032551;28;20041;-69
2021/12/23 01:15:27;;;;;;;47.28;18.73;;;-4.90;99.90;;;;;;5013780;28;20036;-69
2021/12/23 01:17:56;;;;;;;43.40;19.00;;;-4.90;99.90;;;;;;5026273;28;20116;-69
2021/12/23 01:20:33;;;;;;;42.72;19.05;;;-4.90;99.90;;;;;;5027932;28;20485;-69
2021/12/23 01:23:03;;;;;;;41.45;18.30;;;-4.90;99.90;;;;;;5025233;28;20481;-69
2021/12/23 01:25:33;;;;;;;47.00;19.52;;;-5.00;99.90;;;;;;5015988;28;20022;-69
2021/12/23 01:27:59;;;;;;;51.38;20.10;;;-4.90;99.90;;;;;;5032569;28;20163;-69
2021/12/23 01:30:26;;;;;;;45.10;19.02;;;-4.90;99.90;;;;;;5018063;28;20018;-69
2021/12/23 01:32:54;;;;;;;51.17;19.80;;;-4.90;99.90;;;;;;5025573;28;20064;-69
2021/12/23 01:35:25;;;;;;;47.58;16.40;;;-4.90;99.90;;;;;;5010842;28;20570;-69
2021/12/23 01:37:51;;;;;;;51.30;20.13;;;-4.90;99.90;;;;;;5017140;28;20025;-69
2021/12/23 01:40:19;;;;;;;44.17;17.08;;;-4.90;99.90;;;;;;5030260;28;20116;-69
2021/12/23 01:42:45;;;;;;;43.35;17.55;;;-4.80;99.90;;;;;;5019516;28;20072;-69
2021/12/23 01:45:20;;;;;;;44.35;17.42;;;-4.80;99.90;;;;;;5009031;28;20040;-69
2021/12/23 01:47:47;;;;;;;47.63;17.17;;;-4.80;99.90;;;;;;5029922;28;20039;-69
2021/12/23 01:50:17;;;;;;;46.28;17.02;;;-4.80;99.90;;;;;;5018958;28;20094;-69
2021/12/23 01:52:43;;;;;;;44.38;17.88;;;-4.70;99.90;;;;;;5026206;28;20033;-69
2021/12/23 01:55:11;;;;;;;40.75;15.95;;;-4.60;99.90;;;;;;5026617;28;20394;-69
2021/12/23 01:57:39;;;;;;;44.15;17.52;;;-4.60;99.90;;;;;;5029842;28;20032;-69
2021/12/23 02:00:09;;;;;;;39.92;15.43;;;-4.60;99.90;;;;;;5025014;28;20036;-69
2021/12/23 02:02:36;;;;;;;47.20;17.42;;;-4.50;99.90;;;;;;5028876;28;20115;-69
2021/12/23 02:05:05;;;;;;;40.70;15.98;;;-4.40;99.90;;;;;;5027773;28;20029;-69
2021/12/23 02:07:35;;;;;;;40.80;15.10;;;-4.40;99.90;;;;;;5027702;28;20101;-69
2021/12/23 02:10:01;;;;;;;40.22;14.82;;;-4.30;99.90;;;;;;5027222;28;20021;-69
2021/12/23 02:12:28;;;;;;;38.28;15.70;;;-4.20;99.90;;;;;;5029697;28;20029;-69
2021/12/23 02:14:53;;;;;;;37.13;14.73;;;-4.10;99.90;;;;;;5029932;28;20053;-70
2021/12/23 02:17:19;;;;;;;39.40;14.38;;;-4.00;99.90;;;;;;5027652;28;20022;-69
2021/12/23 02:19:45;;;;;;;40.50;15.57;;;-3.90;99.90;;;;;;5025791;28;20512;-69
2021/12/23 02:22:11;;;;;;;40.05;16.05;;;-3.90;99.90;;;;;;5029262;28;20026;-68
2021/12/23 02:24:39;;;;;;;38.47;15.40;;;-3.90;99.90;;;;;;5026994;28;20108;-69
2021/12/23 02:27:05;;;;;;;44.63;17.42;;;-3.80;99.90;;;;;;5025957;28;20038;-69
2021/12/23 02:29:34;;;;;;;41.30;15.25;;;-3.80;99.90;;;;;;5027351;28;20037;-69
2021/12/23 02:32:06;;;;;;;38.20;15.85;;;-3.70;99.90;;;;;;5025038;28;20108;-69
2021/12/23 02:34:31;;;;;;;38.78;14.80;;;-3.70;99.90;;;;;;5032888;28;20033;-69
2021/12/23 02:36:59;;;;;;;40.45;16.02;;;-3.70;99.90;;;;;;5012708;28;20024;-69
2021/12/23 02:39:28;;;;;;;43.03;17.15;;;-3.70;99.90;;;;;;5025618;28;20393;-69
2021/12/23 02:41:55;;;;;;;39.50;16.10;;;-3.70;99.90;;;;;;5009715;28;20052;-69
2021/12/23 02:44:21;;;;;;;40.03;15.32;;;-3.70;99.90;;;;;;5031391;28;20033;-69
2021/12/23 02:46:50;;;;;;;41.13;16.33;;;-3.70;99.90;;;;;;5026759;28;20477;-69
2021/12/23 02:49:17;;;;;;;40.20;15.35;;;-3.70;99.90;;;;;;5027980;28;22979;-69
2021/12/23 02:51:43;;;;;;;39.95;15.68;;;-3.60;99.90;;;;;;5019724;28;20022;-69
2021/12/23 02:54:09;;;;;;;37.78;15.15;;;-3.50;99.90;;;;;;5032954;28;20021;-68
2021/12/23 02:56:34;;;;;;;36.10;14.90;;;-3.50;99.90;;;;;;5030809;28;20525;-69
2021/12/23 02:59:01;;;;;;;40.13;16.33;;;-3.50;99.90;;;;;;5027609;28;20032;-69
2021/12/23 03:01:32;;;;;;;38.80;15.32;;;-3.50;99.90;;;;;;5021517;28;20104;-69
2021/12/23 03:03:59;;;;;;;39.97;15.30;;;-3.50;99.90;;;;;;5024586;28;20079;-69
2021/12/23 03:06:25;;;;;;;36.42;14.48;;;-3.50;99.90;;;;;;5031852;28;20033;-69
2021/12/23 03:08:53;;;;;;;41.20;17.15;;;-3.40;99.90;;;;;;5033219;28;20140;-69
2021/12/23 03:11:22;;;;;;;38.45;14.40;;;-3.50;99.90;;;;;;5031078;28;20359;-69
2021/12/23 03:13:48;;;;;;;36.83;15.13;;;-3.50;99.90;;;;;;5009347;28;20406;-69
2021/12/23 03:16:19;;;;;;;40.67;15.02;;;-3.50;99.90;;;;;;5028641;28;20194;-69
2021/12/23 03:18:45;;;;;;;38.05;15.02;;;-3.40;99.90;;;;;;5009972;28;20434;-69
2021/12/23 03:21:11;;;;;;;45.13;16.35;;;-3.40;99.90;;;;;;5027821;28;20063;-69
2021/12/23 03:23:37;;;;;;;40.78;15.07;;;-3.40;99.90;;;;;;5028426;28;20385;-69
2021/12/23 03:26:04;;;;;;;45.00;16.95;;;-3.40;99.90;;;;;;5031308;28;20053;-69
2021/12/23 03:28:30;;;;;;;42.13;16.58;;;-3.40;99.90;;;;;;5009446;28;20037;-69
2021/12/23 03:30:57;;;;;;;43.97;17.40;;;-3.40;99.90;;;;;;5032175;28;20026;-69
2021/12/23 03:33:22;;;;;;;43.42;16.05;;;-3.40;99.90;;;;;;5029018;28;20034;-69
2021/12/23 03:35:48;;;;;;;40.40;15.15;;;-3.40;99.90;;;;;;5034259;28;20040;-69
2021/12/23 03:38:22;;;;;;;35.70;14.52;;;-3.40;99.90;;;;;;5032005;28;20424;-69
2021/12/23 03:40:49;;;;;;;41.97;15.02;;;-3.40;99.90;;;;;;5030771;28;20063;-69
2021/12/23 03:43:22;;;;;;;40.40;15.60;;;-3.40;99.90;;;;;;5027683;28;20044;-69
2021/12/23 03:45:49;;;;;;;40.33;15.23;;;-3.40;99.90;;;;;;5010652;28;20104;-69
2021/12/23 03:48:17;;;;;;;35.75;14.60;;;-3.40;99.90;;;;;;5014160;28;20120;-69
2021/12/23 03:50:44;;;;;;;33.97;13.48;;;-3.40;99.90;;;;;;5028121;28;20107;-69
2021/12/23 03:53:10;;;;;;;41.97;16.23;;;-3.40;99.90;;;;;;5029824;28;20017;-69
2021/12/23 03:55:40;;;;;;;41.05;15.95;;;-3.30;99.90;;;;;;5026749;28;20043;-68
2021/12/23 03:58:11;;;;;;;38.85;15.23;;;-3.30;99.90;;;;;;5028016;28;20109;-69
2021/12/23 04:00:37;;;;;;;39.22;14.68;;;-3.30;99.90;;;;;;5015594;28;20061;-69
2021/12/23 04:03:03;;;;;;;42.40;16.13;;;-3.30;99.90;;;;;;5026783;28;20072;-69
2021/12/23 04:05:28;;;;;;;37.45;14.23;;;-3.20;99.90;;;;;;5034175;28;20037;-69
2021/12/23 04:07:54;;;;;;;35.65;14.85;;;-3.20;99.90;;;;;;5028074;28;20482;-69
2021/12/23 04:10:21;;;;;;;35.58;14.60;;;-3.20;99.90;;;;;;5008532;28;20504;-69
2021/12/23 04:12:51;;;;;;;43.80;15.65;;;-3.20;99.90;;;;;;5025311;28;20076;-69
2021/12/23 04:15:17;;;;;;;41.15;15.07;;;-3.10;99.90;;;;;;5029507;28;20033;-69
2021/12/23 04:17:43;;;;;;;36.05;16.00;;;-3.10;99.90;;;;;;5041027;28;20109;-69
2021/12/23 04:20:22;;;;;;;38.58;15.50;;;-3.20;99.90;;;;;;5031546;28;20100;-69
2021/12/23 04:22:54;;;;;;;34.88;14.75;;;-3.20;99.90;;;;;;5014175;28;20030;-69
2021/12/23 04:25:22;;;;;;;41.85;17.08;;;-3.30;99.90;;;;;;5028651;28;20104;-69
2021/12/23 04:27:50;;;;;;;43.03;17.05;;;-3.30;99.90;;;;;;5030630;28;20056;-69
2021/12/23 04:30:17;;;;;;;40.83;16.60;;;-3.40;99.90;;;;;;5013695;28;20414;-68
2021/12/23 04:32:48;;;;;;;44.83;17.13;;;-3.40;99.90;;;;;;5039907;28;20022;-69
2021/12/23 04:35:15;;;;;;;43.63;17.55;;;-3.40;99.90;;;;;;5037696;28;20029;-69
2021/12/23 04:37:43;;;;;;;44.33;17.02;;;-3.50;99.90;;;;;;5030332;28;20022;-68
2021/12/23 04:40:12;;;;;;;41.85;16.55;;;-3.40;99.90;;;;;;5032992;28;20551;-68
2021/12/23 04:42:38;;;;;;;37.70;15.35;;;-3.50;99.90;;;;;;5028548;28;20025;-68
2021/12/23 04:45:08;;;;;;;37.47;15.68;;;-3.50;99.90;;;;;;5011314;28;20041;-69
2021/12/23 04:47:34;;;;;;;37.03;15.02;;;-3.60;99.90;;;;;;5012072;28;20409;-69
2021/12/23 04:50:00;;;;;;;39.50;16.30;;;-3.70;99.90;;;;;;5032928;28;20100;-69
2021/12/23 04:52:32;;;;;;;38.20;15.95;;;-3.80;99.90;;;;;;5031686;28;20120;-69
2021/12/23 04:55:01;;;;;;;39.05;15.70;;;-4.00;99.90;;;;;;5032110;28;20513;-69
2021/12/23 04:57:26;;;;;;;40.78;15.52;;;-4.10;99.90;;;;;;5032020;28;20092;-68
2021/12/23 04:59:52;;;;;;;42.53;17.67;;;-4.20;99.90;;;;;;5027632;28;20025;-69
2021/12/23 05:02:21;;;;;;;39.05;15.75;;;-4.20;99.90;;;;;;5026841;28;20417;-69
2021/12/23 05:04:50;;;;;;;43.65;16.92;;;-4.30;99.90;;;;;;5034641;28;20029;-69
2021/12/23 05:07:22;;;;;;;37.58;15.18;;;-4.30;99.90;;;;;;5034019;28;20504;-69
2021/12/23 05:09:47;;;;;;;40.40;16.58;;;-4.30;99.90;;;;;;5011199;28;20134;-69
2021/12/23 05:12:16;;;;;;;34.90;15.50;;;-4.40;99.90;;;;;;5027398;28;20025;-69
2021/12/23 05:14:42;;;;;;;38.47;15.68;;;-4.50;99.90;;;;;;5018061;28;20025;-69
2021/12/23 05:17:07;;;;;;;39.05;16.02;;;-4.50;99.90;;;;;;5014360;28;20415;-69
2021/12/23 05:19:36;;;;;;;38.55;16.27;;;-4.40;99.90;;;;;;5044077;28;20034;-69
2021/12/23 05:22:02;;;;;;;33.70;13.95;;;-4.40;99.90;;;;;;5026053;28;20052;-69
2021/12/23 05:24:28;;;;;;;32.92;13.52;;;-4.50;99.90;;;;;;5022179;28;20052;-69
2021/12/23 05:26:53;;;;;;;40.20;14.70;;;-4.40;99.90;;;;;;5029702;28;20033;-69
2021/12/23 05:29:22;;;;;;;34.63;14.02;;;-4.50;99.90;;;;;;5032002;28;21286;-70
2021/12/23 05:31:51;;;;;;;34.38;13.38;;;-4.50;99.90;;;;;;5030844;28;20041;-68
2021/12/23 05:34:16;;;;;;;35.72;15.00;;;-4.50;99.90;;;;;;5027105;28;20028;-69
2021/12/23 05:36:42;;;;;;;35.83;14.70;;;-4.50;99.90;;;;;;5029527;28;20394;-69
2021/12/23 05:39:08;;;;;;;35.83;14.32;;;-4.60;99.90;;;;;;5032346;28;20025;-69
2021/12/23 05:41:34;;;;;;;37.67;14.40;;;-4.50;99.90;;;;;;5008555;28;20026;-68
2021/12/23 05:44:01;;;;;;;35.85;15.30;;;-4.60;99.90;;;;;;5011385;28;20025;-69
2021/12/23 05:46:27;;;;;;;41.53;15.13;;;-4.50;99.90;;;;;;5028399;28;20028;-68
2021/12/23 05:48:52;;;;;;;34.05;13.23;;;-4.50;99.90;;;;;;5015728;28;20033;-68
2021/12/23 05:51:18;;;;;;;35.05;15.57;;;-4.50;99.90;;;;;;5018076;28;20061;-68
2021/12/23 05:53:44;;;;;;;45.50;16.42;;;-4.50;99.90;;;;;;5022482;28;20022;-67
2021/12/23 05:56:10;;;;;;;40.83;16.15;;;-4.50;99.90;;;;;;5010245;28;20034;-67
2021/12/23 05:58:35;;;;;;;39.97;16.45;;;-4.30;99.90;;;;;;5032841;28;20113;-68
2021/12/23 06:01:01;;;;;;;35.42;15.38;;;-4.20;99.90;;;;;;5022272;28;20048;-68
2021/12/23 06:03:27;;;;;;;44.95;16.90;;;-4.20;99.90;;;;;;5020316;28;20037;-69
2021/12/23 06:05:53;;;;;;;39.65;15.45;;;-4.20;99.90;;;;;;5030740;28;20018;-69
2021/12/23 06:08:18;;;;;;;42.83;16.13;;;-4.20;99.90;;;;;;5024046;28;20036;-69
2021/12/23 06:10:44;;;;;;;40.08;16.30;;;-4.20;99.90;;;;;;5028103;28;20068;-69
2021/12/23 06:13:13;;;;;;;34.97;15.00;;;-4.20;99.90;;;;;;5025655;28;20034;-70
2021/12/23 06:15:39;;;;;;;38.67;14.82;;;-4.30;99.90;;;;;;5042411;28;20060;-70
2021/12/23 06:18:04;;;;;;;35.55;15.35;;;-4.40;99.90;;;;;;5028875;28;20061;-68
2021/12/23 06:20:30;;;;;;;36.95;15.18;;;-4.40;99.90;;;;;;5027202;28;20040;-69
2021/12/23 06:22:56;;;;;;;33.80;14.45;;;-4.50;99.90;;;;;;5021834;28;20095;-68
2021/12/23 06:25:21;;;;;;;37.60;15.93;;;-4.50;99.90;;;;;;5029994;28;20029;-69
2021/12/23 06:27:47;;;;;;;42.55;17.30;;;-4.50;99.90;;;;;;5019955;28;20091;-69
2021/12/23 06:30:21;;;;;;;39.85;16.45;;;-4.50;99.90;;;;;;5028722;28;20025;-68
2021/12/23 06:32:52;;;;;;;43.20;16.77;;;-4.40;99.90;;;;;;5026895;28;20473;-69
2021/12/23 06:35:20;;;;;;;37.35;15.77;;;-4.40;99.90;;;;;;5017048;28;20126;-69
2021/12/23 06:37:46;;;;;;;37.65;15.88;;;-4.40;99.90;;;;;;5024926;28;20057;-70
2021/12/23 06:40:13;;;;;;;39.85;16.23;;;-4.40;99.90;;;;;;5026799;28;20105;-69
2021/12/23 06:42:39;;;;;;;42.50;16.88;;;-4.30;99.90;;;;;;5028510;28;20113;-69
2021/12/23 06:45:06;;;;;;;37.67;15.45;;;-4.30;99.90;;;;;;5007662;28;20536;-69
2021/12/23 06:47:33;;;;;;;41.05;15.10;;;-4.30;99.90;;;;;;5026069;28;20053;-68
2021/12/23 06:49:59;;;;;;;48.00;17.65;;;-4.20;99.90;;;;;;5023852;28;20022;-68
2021/12/23 06:52:25;;;;;;;40.38;16.50;;;-4.10;99.90;;;;;;5024276;28;20040;-68
2021/12/23 06:54:53;;;;;;;39.67;16.35;;;-4.00;99.90;;;;;;5009606;28;20112;-68
2021/12/23 06:57:22;;;;;;;37.85;16.17;;;-4.00;99.90;;;;;;5026918;28;20029;-68
2021/12/23 06:59:48;;;;;;;44.35;16.85;;;-3.90;99.90;;;;;;5011479;28;20034;-68
2021/12/23 07:02:14;;;;;;;46.90;18.42;;;-3.90;99.90;;;;;;5031184;28;20037;-67
2021/12/23 07:04:42;;;;;;;45.08;17.33;;;-3.90;99.90;;;;;;5010663;28;20527;-69
2021/12/23 07:07:18;;;;;;;38.58;15.43;;;-3.90;99.90;;;;;;5011043;28;20041;-69
2021/12/23 07:09:44;;;;;;;44.67;16.95;;;-3.90;99.90;;;;;;5028278;28;20018;-69
2021/12/23 07:12:11;;;;;;;40.33;17.70;;;-3.80;99.90;;;;;;5007011;28;20516;-69
2021/12/23 07:14:38;;;;;;;43.03;17.90;;;-3.80;99.90;;;;;;5031444;28;20079;-69
2021/12/23 07:17:07;;;;;;;38.63;17.10;;;-3.80;99.90;;;;;;5012700;28;20076;-69
2021/12/23 07:19:32;;;;;;;42.63;17.20;;;-3.80;99.90;;;;;;5026249;28;20022;-69
2021/12/23 07:21:58;;;;;;;41.25;17.08;;;-3.80;99.90;;;;;;5028072;28;20766;-69
2021/12/23 07:24:24;;;;;;;41.38;17.17;;;-3.80;99.90;;;;;;5018454;28;20088;-68
2021/12/23 07:26:49;;;;;;;36.72;15.82;;;-3.80;99.90;;;;;;5024864;28;20032;-69
2021/12/23 07:29:15;;;;;;;40.55;16.55;;;-3.80;99.90;;;;;;5024634;28;20081;-69
2021/12/23 07:31:41;;;;;;;41.15;16.95;;;-3.90;99.90;;;;;;5022224;28;20387;-68
2021/12/23 07:34:07;;;;;;;40.08;16.33;;;-3.90;99.90;;;;;;5028400;28;20371;-69
2021/12/23 07:36:34;;;;;;;36.50;15.55;;;-3.90;99.90;;;;;;5018827;28;20033;-69
2021/12/23 07:39:00;;;;;;;40.13;16.73;;;-3.90;99.90;;;;;;5029333;28;20033;-69
2021/12/23 07:41:26;;;;;;;40.67;18.30;;;-3.90;99.90;;;;;;5029623;28;20029;-69
2021/12/23 07:46:21;;;;;;;54.80;19.95;;;-3.90;99.90;;;;;;5022237;28;20547;-69
2021/12/23 07:48:47;;;;;;;48.22;20.08;;;-3.80;99.90;;;;;;5029247;28;20033;-69
2021/12/23 07:51:13;;;;;;;48.80;18.50;;;-3.80;99.90;;;;;;5001814;28;20061;-68
2021/12/23 07:53:38;;;;;;;50.80;19.20;;;-3.70;99.90;;;;;;5008125;28;20030;-69
2021/12/23 07:56:04;;;;;;;45.72;18.25;;;-3.60;99.90;;;;;;5027093;28;20478;-70
2021/12/23 07:58:30;;;;;;;49.03;18.45;;;-3.50;99.90;;;;;;5031196;23;20085;-74
2021/12/23 08:00:56;;;;;;;48.28;18.40;;;-3.40;99.90;;;;;;5022423;28;20029;-74
2021/12/23 08:03:22;;;;;;;45.75;18.50;;;-3.40;99.90;;;;;;5010320;28;20030;-73
2021/12/23 08:05:48;;;;;;;40.50;16.38;;;-3.30;99.90;;;;;;5025336;28;20448;-74
2021/12/23 08:08:14;;;;;;;42.92;16.10;;;-3.20;99.90;;;;;;5011626;28;20037;-74
2021/12/23 08:10:40;;;;;;;48.38;17.95;;;-3.20;99.90;;;;;;5030623;28;20508;-74
2021/12/23 08:13:07;;;;;;;44.15;18.90;;;-3.10;99.90;;;;;;5030713;28;20068;-74
2021/12/23 08:15:33;;;;;;;44.78;18.33;;;-3.10;99.90;;;;;;5027797;28;20056;-74
2021/12/23 08:17:59;;;;;;;53.60;18.65;;;-3.00;99.90;;;;;;5029220;28;20444;-74
2021/12/23 08:20:25;;;;;;;42.25;17.10;;;-3.00;99.90;;;;;;5031940;28;20091;-74
2021/12/23 08:22:51;;;;;;;43.42;16.70;;;-3.00;99.90;;;;;;5031451;28;20042;-74
2021/12/23 08:25:17;;;;;;;42.28;16.63;;;-3.00;99.90;;;;;;5037646;28;20025;-74
2021/12/23 08:27:44;;;;;;;39.33;16.20;;;-2.90;99.90;;;;;;5018796;28;20483;-75
2021/12/23 08:30:12;;;;;;;38.88;14.80;;;-2.80;99.90;;;;;;5026910;28;20108;-75
2021/12/23 08:32:38;;;;;;;39.75;15.50;;;-2.70;99.90;;;;;;5018207;28;20026;-74
2021/12/23 08:35:05;;;;;;;37.90;16.10;;;-2.70;99.90;;;;;;5026033;28;20112;-74
2021/12/23 08:37:30;;;;;;;36.55;14.90;;;-2.60;99.90;;;;;;5028011;28;20481;-74
2021/12/23 08:39:56;;;;;;;48.20;16.95;;;-2.50;99.90;;;;;;5016260;28;20029;-75
2021/12/23 08:42:22;;;;;;;39.42;15.82;;;-2.40;99.90;;;;;;5010148;28;20370;-73
2021/12/23 08:44:48;;;;;;;44.83;17.38;;;-2.30;99.90;;;;;;5005300;28;20040;-74
2021/12/23 08:47:14;;;;;;;47.53;18.60;;;-2.20;99.90;;;;;;5008004;28;20053;-76
2021/12/23 08:49:44;;;;;;;35.20;16.10;;;-2.10;99.90;;;;;;5029790;28;20047;-75
2021/12/23 08:52:11;;;;;;;38.20;16.75;;;-2.10;99.90;;;;;;5032513;28;20104;-75
2021/12/23 08:54:36;;;;;;;38.40;16.35;;;-1.90;99.90;;;;;;5031846;28;20135;-75
2021/12/23 08:57:04;;;;;;;36.33;15.95;;;-1.90;99.90;;;;;;5041474;28;20064;-75
2021/12/23 08:59:30;;;;;;;36.65;15.88;;;-1.80;99.90;;;;;;5017396;28;20032;-75
2021/12/23 09:01:56;;;;;;;35.00;16.00;;;-1.80;99.90;;;;;;5019242;28;20025;-76
2021/12/23 09:04:21;;;;;;;43.78;18.23;;;-1.70;99.90;;;;;;5025964;28;20121;-75
2021/12/23 09:06:47;;;;;;;36.63;17.13;;;-1.70;99.90;;;;;;5028021;28;20128;-75
2021/12/23 09:09:13;;;;;;;40.28;16.30;;;-1.60;99.90;;;;;;5012047;28;20033;-76
2021/12/23 09:11:39;;;;;;;39.33;17.00;;;-1.50;99.90;;;;;;5047223;28;20033;-76
2021/12/23 09:14:06;;;;;;;35.90;15.02;;;-1.60;99.90;;;;;;5024589;28;20028;-76
2021/12/23 09:16:31;;;;;;;37.63;16.50;;;-1.50;99.90;;;;;;5031047;28;20041;-75
2021/12/23 09:18:57;;;;;;;41.90;15.77;;;-1.50;99.90;;;;;;5031468;28;20025;-75
2021/12/23 09:21:23;;;;;;;42.80;17.27;;;-1.40;99.90;;;;;;5032052;28;20033;-76
2021/12/23 09:23:49;;;;;;;38.92;16.67;;;-1.30;99.90;;;;;;5034715;28;20030;-76
2021/12/23 09:26:15;;;;;;;38.78;16.08;;;-1.30;99.90;;;;;;5027833;28;20029;-76
2021/12/23 09:34:05;;;;;;;28.98;13.73;;;-1.00;99.90;;;;;;5031264;28;20050;-76
2021/12/23 09:36:31;;;;;;;33.50;15.50;;;-0.90;99.90;;;;;;5032093;28;20029;-76
2021/12/23 09:38:56;;;;;;;34.38;14.55;;;-0.90;99.90;;;;;;5021576;28;20095;-76
2021/12/23 09:41:23;;;;;;;37.00;14.82;;;-0.90;99.90;;;;;;5028143;28;20096;-75
2021/12/23 09:43:50;;;;;;;33.05;15.38;;;-0.70;99.90;;;;;;5007459;28;20097;-74
2021/12/23 09:46:21;;;;;;;39.15;15.43;;;-0.70;99.90;;;;;;5028128;28;20024;-74
2021/12/23 09:48:48;;;;;;;31.77;14.45;;;-0.60;99.90;;;;;;5031613;28;20025;-74
2021/12/23 09:51:19;;;;;;;37.78;16.27;;;-0.50;99.90;;;;;;5032163;28;20632;-74
2021/12/23 09:53:54;;;;;;;38.97;14.75;;;-0.30;99.90;;;;;;5037130;28;20418;-74
2021/12/23 09:56:21;;;;;;;41.13;17.27;;;-0.30;99.90;;;;;;5013716;28;20051;-74
2021/12/23 09:58:46;;;;;;;38.95;16.15;;;-0.10;99.90;;;;;;5010986;28;20029;-74
2021/12/23 10:01:15;;;;;;;39.92;17.30;;;0.00;99.90;;;;;;5034168;28;20040;-74
2021/12/23 10:03:47;;;;;;;33.90;15.73;;;0.10;99.90;;;;;;5031015;28;20048;-74
2021/12/23 10:06:19;;;;;;;34.83;16.15;;;0.20;99.90;;;;;;5012740;28;20069;-75
2021/12/23 10:08:46;;;;;;;41.42;18.35;;;0.30;99.90;;;;;;5013643;28;20040;-74
2021/12/23 10:30:34;;;;;;;39.88;17.65;;;1.40;99.90;;;;;;5022523;28;20091;-73
2021/12/23 10:38:30;;;;;;;39.50;17.02;;;1.70;99.90;;;;;;5027261;28;20029;-73
2021/12/23 10:41:00;;;;;;;37.28;17.38;;;1.70;99.90;;;;;;5010807;28;20033;-74
2021/12/23 10:43:33;;;;;;;41.22;17.67;;;1.80;99.90;;;;;;5016488;28;20102;-74
2021/12/23 10:46:10;;;;;;;40.70;18.67;;;1.60;99.90;;;;;;5010237;28;20143;-73
2021/12/23 10:48:46;;;;;;;42.92;19.33;;;1.70;99.90;;;;;;5005905;28;20096;-73
2021/12/23 10:51:17;;;;;;;44.63;17.80;;;1.70;99.90;;;;;;5028218;28;20029;-73
2021/12/23 10:59:18;;;;;;;40.42;17.85;;;1.80;99.90;;;;;;5029509;28;20055;-71
2021/12/23 11:02:12;;;;;;;36.60;18.08;;;1.80;99.90;;;;;;5029562;28;20049;-71
2021/12/23 11:05:00;;;;;;;41.03;17.60;;;1.80;99.90;;;;;;5012492;28;20044;-72
2021/12/23 11:07:39;;;;;;;38.75;18.25;;;1.90;99.90;;;;;;5033522;28;20056;-71
2021/12/23 11:10:17;;;;;;;44.42;17.85;;;2.00;99.90;;;;;;5012109;28;20017;-71
2021/12/23 11:40:58;;;;;;;43.80;21.05;;;2.20;99.90;;;;;;5027240;28;20112;-73
2021/12/23 11:43:58;;;;;;;39.58;20.60;;;2.20;99.90;;;;;;5027039;28;20461;-74
2021/12/23 11:46:23;;;;;;;42.20;20.92;;;2.20;99.90;;;;;;5020644;28;20072;-72
2021/12/23 11:48:53;;;;;;;42.05;19.45;;;2.30;99.90;;;;;;5013468;28;20034;-71
2021/12/23 11:51:30;;;;;;;41.58;19.55;;;2.40;99.90;;;;;;5026579;28;20029;-72
2021/12/23 11:53:57;;;;;;;41.53;19.95;;;2.40;99.90;;;;;;5007820;28;20064;-72
2021/12/23 11:56:24;;;;;;;43.83;20.13;;;2.50;99.90;;;;;;5023113;28;20043;-73
2021/12/23 11:58:51;;;;;;;41.38;19.27;;;2.50;99.90;;;;;;5022862;28;20056;-73
2021/12/23 12:01:25;;;;;;;42.78;19.70;;;2.50;99.90;;;;;;5019401;28;20022;-73
2021/12/23 12:04:09;;;;;;;40.15;19.65;;;2.50;99.90;;;;;;5003352;28;20510;-73
2021/12/23 12:06:39;;;;;;;38.92;17.52;;;2.60;99.90;;;;;;5025287;28;20057;-73
2021/12/23 12:09:32;;;;;;;39.10;17.48;;;2.60;99.90;;;;;;5017429;28;20160;-73
2021/12/23 12:12:09;;;;;;;39.10;18.63;;;2.70;99.90;;;;;;4991697;28;20129;-73
2021/12/23 12:14:41;;;;;;;37.72;19.13;;;2.80;99.90;;;;;;5020927;28;20022;-74
2021/12/23 12:17:25;;;;;;;40.63;17.90;;;2.80;99.90;;;;;;5009619;28;20029;-73
2021/12/23 12:19:59;;;;;;;;;;;3.00;99.90;;;;;;5026781;28;20131;-74
2021/12/23 12:22:53;;;;;;;52.83;25.23;;;3.00;99.90;;;;;;5029516;28;19917;-74
2021/12/23 12:25:28;;;;;;;52.15;22.60;;;3.10;99.90;;;;;;5019944;28;20040;-75
2021/12/23 12:27:57;;;;;;;47.65;20.48;;;3.20;99.90;;;;;;5014753;28;20043;-73
2021/12/23 12:30:35;;;;;;;43.33;19.88;;;3.30;99.90;;;;;;5022799;28;20037;-73
2021/12/23 12:33:05;;;;;;;47.35;21.73;;;3.40;99.90;;;;;;5003744;28;20140;-74
2021/12/23 12:35:31;;;;;;;37.63;18.73;;;3.50;99.90;;;;;;5014842;28;20057;-73
2021/12/23 12:38:12;;;;;;;36.28;18.25;;;3.50;99.90;;;;;;5027485;28;20036;-74
2021/12/23 12:40:57;;;;;;;34.83;15.95;;;3.60;99.90;;;;;;5009084;28;20060;-75
2021/12/23 12:43:41;;;;;;;26.65;12.05;;;3.70;99.90;;;;;;5008962;28;20124;-74
2021/12/23 12:46:07;;;;;;;28.50;13.30;;;3.80;99.90;;;;;;5031970;28;20374;-74
2021/12/23 12:48:55;;;;;;;25.63;11.50;;;3.90;99.90;;;;;;5012022;28;20052;-74
2021/12/23 12:51:35;;;;;;;23.45;11.80;;;4.00;99.90;;;;;;5028264;28;20033;-74
2021/12/23 12:54:06;;;;;;;29.08;13.02;;;4.10;99.90;;;;;;5002590;28;20401;-75
2021/12/23 12:56:45;;;;;;;29.88;12.27;;;4.20;99.90;;;;;;5028505;28;20084;-75
2021/12/23 12:59:15;;;;;;;24.20;11.57;;;4.30;99.90;;;;;;5032971;28;20029;-74
2021/12/23 13:01:44;;;;;;;25.33;12.50;;;4.30;99.90;;;;;;5017624;28;20143;-75
2021/12/23 13:04:31;;;;;;;26.42;12.25;;;4.40;99.90;;;;;;5011881;28;20083;-74
2021/12/23 13:07:11;;;;;;;21.13;10.75;;;4.50;99.90;;;;;;5032798;28;20576;-74
2021/12/23 13:09:54;;;;;;;23.02;11.13;;;4.50;99.90;;;;;;5015698;28;20486;-74
2021/12/23 13:12:34;;;;;;;24.50;11.68;;;4.50;99.90;;;;;;5019830;28;20116;-73
2021/12/23 13:15:29;;;;;;;23.05;11.50;;;4.60;99.90;;;;;;5017326;28;20029;-75
2021/12/23 13:18:00;;;;;;;25.02;11.57;;;4.60;99.90;;;;;;5016436;28;20043;-74
2021/12/23 13:20:50;;;;;;;22.42;11.63;;;4.70;99.90;;;;;;5030846;28;20021;-75
2021/12/23 13:23:37;;;;;;;25.40;13.02;;;4.70;99.90;;;;;;5039690;28;20025;-74
2021/12/23 13:26:15;;;;;;;23.05;11.48;;;4.70;99.90;;;;;;5022307;28;20025;-74
2021/12/23 13:28:43;;;;;;;23.92;12.45;;;4.70;99.90;;;;;;5017707;28;20033;-75
2021/12/23 13:31:14;;;;;;;26.60;12.45;;;4.80;99.90;;;;;;5032436;28;20025;-74
2021/12/23 13:33:53;;;;;;;23.90;11.05;;;4.80;99.90;;;;;;5018827;28;20112;-75
2021/12/23 13:36:23;;;;;;;23.25;10.93;;;4.80;99.90;;;;;;5035938;28;20036;-75
2021/12/23 13:38:55;;;;;;;24.08;10.80;;;4.80;99.90;;;;;;5029688;28;20021;-74
2021/12/23 13:41:25;;;;;;;22.88;11.48;;;4.90;99.90;;;;;;5017526;28;20370;-75
2021/12/23 13:43:54;;;;;;;21.42;10.20;;;4.80;99.90;;;;;;5022085;28;20029;-73
2021/12/23 13:46:20;;;;;;;20.05;10.85;;;4.80;99.90;;;;;;5028719;28;20492;-74
2021/12/23 13:49:05;;;;;;;23.83;10.73;;;4.80;99.90;;;;;;5027209;28;20021;-74
2021/12/23 13:51:36;;;;;;;25.85;11.68;;;4.80;99.90;;;;;;5025995;28;20029;-72
2021/12/23 13:54:10;;;;;;;25.42;11.07;;;4.80;99.90;;;;;;5028077;28;20040;-73